createdAt,value
2018-12-13T00:00:30.588Z,2.00
2018-12-13T00:05:39.141Z,1.90
2018-12-13T00:10:43.670Z,1.80
2018-12-13T00:15:48.072Z,1.80
2018-12-13T00:20:52.118Z,1.80
2018-12-13T00:25:57.671Z,1.80
2018-12-13T00:31:10.418Z,1.70
2018-12-13T00:36:18.552Z,1.80
2018-12-13T08:54:47.401Z,0.80
2018-12-13T08:59:50.649Z,1.30
2018-12-13T09:04:54.026Z,2.00
2018-12-13T09:09:57.320Z,2.60
2018-12-13T09:15:00.659Z,3.10
2018-12-13T09:20:04.724Z,3.40
2018-12-13T09:25:08.003Z,3.70
2018-12-13T09:30:11.956Z,3.50
2018-12-13T09:35:15.232Z,3.80
2018-12-13T09:40:18.657Z,3.60
2018-12-13T09:45:21.950Z,3.70
2018-12-13T09:50:26.410Z,4.00
2018-12-13T09:55:29.705Z,4.20
2018-12-13T10:00:33.124Z,4.20
2018-12-13T10:05:37.432Z,4.50
2018-12-13T10:10:40.671Z,4.90
2018-12-13T10:15:43.899Z,4.90
2018-12-13T10:20:47.254Z,5.20
2018-12-13T10:25:50.541Z,5.30
2018-12-13T10:30:56.458Z,5.50
2018-12-13T10:35:59.747Z,5.80
2018-12-13T10:41:03.078Z,6.20
2018-12-13T10:46:06.565Z,6.60
2018-12-13T10:51:09.836Z,6.10
2018-12-13T10:56:13.279Z,6.30
2018-12-13T11:01:21.849Z,6.50
2018-12-13T11:06:25.802Z,5.90
2018-12-13T11:11:29.023Z,6.20
2018-12-13T11:16:32.371Z,6.50
2018-12-13T11:21:35.765Z,6.70
2018-12-13T11:26:42.343Z,6.60
2018-12-13T11:31:45.870Z,6.30
2018-12-13T11:36:49.363Z,5.90
2018-12-13T11:41:53.338Z,5.80
2018-12-13T11:46:56.729Z,5.70
2018-12-13T11:52:00.039Z,6.20
2018-12-13T11:57:03.346Z,7.00
2018-12-13T12:02:06.589Z,7.50
2018-12-13T12:07:23.584Z,7.60
2018-12-13T12:12:27.479Z,8.10
2018-12-13T12:17:30.731Z,7.20
2018-12-13T12:22:34.008Z,7.00
2018-12-13T12:27:37.279Z,6.60
2018-12-13T12:32:40.652Z,6.60
2018-12-13T12:37:44.099Z,6.60
2018-12-13T12:42:47.486Z,6.20
2018-12-13T12:47:50.731Z,6.20
2018-12-13T12:52:57.652Z,6.40
2018-12-13T12:58:00.964Z,6.50
2018-12-13T13:03:04.226Z,6.20
2018-12-13T13:08:07.671Z,5.90
2018-12-13T13:13:11.083Z,5.10
2018-12-13T13:18:14.405Z,4.90
2018-12-13T13:23:21.221Z,5.20
2018-12-13T13:28:24.539Z,5.20
2018-12-13T13:33:27.803Z,5.00
2018-12-13T13:38:32.243Z,4.60
2018-12-13T13:43:35.497Z,4.60
2018-12-13T13:48:38.826Z,4.70
2018-12-13T13:53:42.185Z,4.50
2018-12-13T13:58:45.421Z,4.30
2018-12-13T14:03:48.798Z,3.80
2018-12-13T14:08:52.167Z,3.70
2018-12-13T14:13:55.685Z,3.60
2018-12-13T14:18:58.896Z,3.60
2018-12-13T14:24:02.218Z,3.60
2018-12-13T14:29:05.518Z,3.40
2018-12-13T14:34:08.770Z,3.30
2018-12-13T14:39:12.102Z,3.30
2018-12-13T14:44:15.370Z,3.30
2018-12-13T14:49:18.634Z,3.20
2018-12-13T14:54:22.505Z,3.10
2018-12-13T14:59:26.267Z,3.10
2018-12-13T15:04:31.598Z,3.10
2018-12-13T15:09:35.134Z,3.00
2018-12-13T15:14:39.338Z,3.00
2018-12-13T15:19:42.792Z,3.00
2018-12-13T15:24:48.639Z,2.90
2018-12-13T15:29:51.980Z,2.70
2018-12-13T16:31:38.330Z,2.60
2018-12-13T16:52:57.831Z,2.40
2018-12-13T17:20:40.187Z,2.70
2018-12-13T17:31:27.023Z,2.90
2018-12-13T17:36:30.490Z,2.80
2018-12-13T17:41:38.489Z,2.90
2018-12-13T17:46:45.871Z,2.90
2018-12-13T17:51:49.184Z,3.00
2018-12-13T17:56:59.194Z,2.90
2018-12-13T18:02:17.670Z,2.90
2018-12-13T18:07:21.004Z,2.70
2018-12-13T18:12:24.403Z,2.60
2018-12-13T18:17:27.847Z,2.60
2018-12-13T18:22:31.206Z,2.70
2018-12-13T18:27:39.811Z,2.80
2018-12-13T18:32:43.155Z,2.80
2018-12-13T18:37:46.553Z,2.80
2018-12-13T18:42:49.959Z,2.80
2018-12-13T18:47:53.379Z,2.60
2018-12-13T18:52:56.726Z,2.50
2018-12-13T18:58:00.195Z,2.50
2018-12-13T19:03:06.011Z,2.50
2018-12-13T19:08:14.237Z,2.40
2018-12-13T19:13:17.912Z,2.50
2018-12-13T19:18:21.285Z,2.50
2018-12-13T19:23:27.877Z,2.40
2018-12-13T19:28:31.178Z,2.30
2018-12-13T19:33:34.516Z,2.30
2018-12-13T19:38:37.906Z,2.40
2018-12-13T19:43:41.873Z,2.30
2018-12-13T19:48:45.142Z,2.40
2018-12-13T19:53:48.501Z,2.30
2018-12-13T19:59:10.859Z,2.40
2018-12-13T20:04:16.910Z,2.30
2018-12-13T20:09:21.790Z,2.30
2018-12-13T20:14:25.735Z,2.30
2018-12-13T20:19:30.416Z,2.30
2018-12-13T20:24:34.185Z,2.30
2018-12-13T20:29:38.617Z,2.30
2018-12-13T20:34:43.324Z,2.30
2018-12-13T20:39:46.950Z,2.40
2018-12-13T20:44:51.749Z,2.50
2018-12-13T20:55:51.577Z,2.20
2018-12-13T21:00:56.461Z,2.20
2018-12-13T21:06:00.470Z,2.20
2018-12-13T21:11:07.522Z,2.40
2018-12-13T21:16:11.503Z,2.20
2018-12-13T21:21:16.700Z,2.20
2018-12-13T21:26:22.320Z,2.30
2018-12-13T21:31:27.015Z,2.30
2018-12-13T21:36:31.215Z,2.30
2018-12-13T21:41:35.921Z,2.30
2018-12-13T21:46:39.916Z,2.40
2018-12-13T21:51:48.555Z,2.20
2018-12-13T22:04:09.221Z,2.10
2018-12-13T22:09:16.427Z,2.00
2018-12-13T22:14:26.300Z,2.10
2018-12-13T22:19:33.357Z,2.10
2018-12-13T22:24:39.967Z,2.10
2018-12-13T22:29:47.474Z,2.10
2018-12-13T22:40:38.535Z,2.20
2018-12-13T22:45:44.637Z,2.10
2018-12-13T22:50:59.379Z,2.20
2018-12-13T23:01:45.078Z,2.30
2018-12-13T23:06:49.051Z,2.20
2018-12-13T23:11:52.974Z,2.30
2018-12-13T23:16:57.111Z,2.50
2018-12-13T23:22:01.576Z,2.40
2018-12-13T23:27:08.141Z,2.30
2018-12-13T23:32:12.160Z,2.40
2018-12-13T23:37:35.148Z,2.30
2018-12-13T23:42:40.390Z,2.30
2018-12-13T23:47:44.263Z,2.30
2018-12-13T23:52:49.497Z,2.30
2018-12-13T23:57:53.798Z,2.40
